sensor_id;sensor_type;location;lat;lon;timestamp;P1;durP1;ratioP1;P2;durP2;ratioP2
16845;SDS011;8539;53.188;8.696;2023-04-02T00:01:24;4.38;;;2.00;;
16845;SDS011;8539;53.188;8.696;2023-04-02T00:04:02;4.50;;;2.17;;
16845;SDS011;8539;53.188;8.696;2023-04-02T00:06:34;4.85;;;2.38;;
16845;SDS011;8539;53.188;8.696;2023-04-02T00:11:42;6.38;;;2.53;;
16845;SDS011;8539;53.188;8.696;2023-04-02T00:14:29;9.02;;;2.55;;
16845;SDS011;8539;53.188;8.696;2023-04-02T00:16:59;5.60;;;2.28;;
16845;SDS011;8539;53.188;8.696;2023-04-02T00:19:29;5.88;;;2.45;;
16845;SDS011;8539;53.188;8.696;2023-04-02T00:22:00;2.50;;;1.92;;
16845;SDS011;8539;53.188;8.696;2023-04-02T00:24:30;7.32;;;2.22;;
16845;SDS011;8539;53.188;8.696;2023-04-02T00:26:57;6.70;;;2.35;;
16845;SDS011;8539;53.188;8.696;2023-04-02T00:29:24;6.47;;;2.60;;
16845;SDS011;8539;53.188;8.696;2023-04-02T00:31:50;4.32;;;2.00;;
16845;SDS011;8539;53.188;8.696;2023-04-02T00:34:22;4.13;;;2.17;;
16845;SDS011;8539;53.188;8.696;2023-04-02T00:37:01;6.45;;;1.85;;
16845;SDS011;8539;53.188;8.696;2023-04-02T00:39:30;6.13;;;1.90;;
16845;SDS011;8539;53.188;8.696;2023-04-02T00:42:03;5.65;;;2.30;;
16845;SDS011;8539;53.188;8.696;2023-04-02T00:44:35;7.97;;;1.90;;
16845;SDS011;8539;53.188;8.696;2023-04-02T00:47:11;5.93;;;2.05;;
16845;SDS011;8539;53.188;8.696;2023-04-02T00:49:39;6.50;;;2.25;;
16845;SDS011;8539;53.188;8.696;2023-04-02T00:52:09;5.43;;;2.42;;
16845;SDS011;8539;53.188;8.696;2023-04-02T00:54:43;5.82;;;2.50;;
16845;SDS011;8539;53.188;8.696;2023-04-02T00:57:14;7.57;;;3.08;;
16845;SDS011;8539;53.188;8.696;2023-04-02T01:02:42;5.32;;;2.00;;
16845;SDS011;8539;53.188;8.696;2023-04-02T01:05:29;3.80;;;2.35;;
16845;SDS011;8539;53.188;8.696;2023-04-02T01:10:37;11.52;;;2.20;;
16845;SDS011;8539;53.188;8.696;2023-04-02T01:16:09;11.57;;;1.90;;
16845;SDS011;8539;53.188;8.696;2023-04-02T01:18:58;3.35;;;1.88;;
16845;SDS011;8539;53.188;8.696;2023-04-02T01:24:19;6.72;;;2.10;;
16845;SDS011;8539;53.188;8.696;2023-04-02T01:26:53;5.30;;;2.72;;
16845;SDS011;8539;53.188;8.696;2023-04-02T01:31:57;7.50;;;2.10;;
16845;SDS011;8539;53.188;8.696;2023-04-02T01:34:26;2.47;;;1.90;;
16845;SDS011;8539;53.188;8.696;2023-04-02T01:40:33;4.10;;;2.03;;
16845;SDS011;8539;53.188;8.696;2023-04-02T01:45:51;4.75;;;1.75;;
16845;SDS011;8539;53.188;8.696;2023-04-02T01:48:22;3.97;;;1.73;;
16845;SDS011;8539;53.188;8.696;2023-04-02T01:50:52;6.63;;;2.30;;
16845;SDS011;8539;53.188;8.696;2023-04-02T01:53:21;4.60;;;1.75;;
16845;SDS011;8539;53.188;8.696;2023-04-02T01:55:51;5.50;;;1.98;;
16845;SDS011;8539;53.188;8.696;2023-04-02T01:58:21;4.80;;;2.13;;
16845;SDS011;8539;53.188;8.696;2023-04-02T02:00:50;9.40;;;2.53;;
16845;SDS011;8539;53.188;8.696;2023-04-02T02:03:21;6.20;;;2.78;;
16845;SDS011;8539;53.188;8.696;2023-04-02T02:05:48;5.43;;;1.65;;
16845;SDS011;8539;53.188;8.696;2023-04-02T02:10:59;7.30;;;1.42;;
16845;SDS011;8539;53.188;8.696;2023-04-02T02:13:26;6.55;;;1.75;;
16845;SDS011;8539;53.188;8.696;2023-04-02T02:15:55;8.15;;;2.33;;
16845;SDS011;8539;53.188;8.696;2023-04-02T02:18:25;5.97;;;1.80;;
16845;SDS011;8539;53.188;8.696;2023-04-02T02:20:53;3.20;;;1.77;;
16845;SDS011;8539;53.188;8.696;2023-04-02T02:23:22;5.97;;;2.13;;
16845;SDS011;8539;53.188;8.696;2023-04-02T02:25:54;2.17;;;1.40;;
16845;SDS011;8539;53.188;8.696;2023-04-02T02:31:02;7.50;;;1.63;;
16845;SDS011;8539;53.188;8.696;2023-04-02T02:33:39;3.30;;;1.85;;
16845;SDS011;8539;53.188;8.696;2023-04-02T02:44:36;7.60;;;1.50;;
16845;SDS011;8539;53.188;8.696;2023-04-02T02:47:09;2.58;;;1.48;;
16845;SDS011;8539;53.188;8.696;2023-04-02T02:49:58;2.47;;;1.80;;
16845;SDS011;8539;53.188;8.696;2023-04-02T02:52:29;2.88;;;1.50;;
16845;SDS011;8539;53.188;8.696;2023-04-02T02:54:58;5.97;;;1.50;;
16845;SDS011;8539;53.188;8.696;2023-04-02T02:57:30;3.95;;;1.50;;
16845;SDS011;8539;53.188;8.696;2023-04-02T02:59:59;4.55;;;1.73;;
16845;SDS011;8539;53.188;8.696;2023-04-02T03:02:28;2.83;;;1.42;;
16845;SDS011;8539;53.188;8.696;2023-04-02T03:04:55;10.48;;;3.13;;
16845;SDS011;8539;53.188;8.696;2023-04-02T03:07:23;6.75;;;2.15;;
16845;SDS011;8539;53.188;8.696;2023-04-02T03:09:53;7.13;;;1.80;;
16845;SDS011;8539;53.188;8.696;2023-04-02T03:18:02;9.65;;;1.88;;
16845;SDS011;8539;53.188;8.696;2023-04-02T03:23:20;2.97;;;1.45;;
16845;SDS011;8539;53.188;8.696;2023-04-02T03:25:57;4.85;;;1.63;;
16845;SDS011;8539;53.188;8.696;2023-04-02T03:28:29;5.85;;;4.38;;
16845;SDS011;8539;53.188;8.696;2023-04-02T03:31:01;7.20;;;1.90;;
16845;SDS011;8539;53.188;8.696;2023-04-02T03:33:54;7.13;;;2.90;;
16845;SDS011;8539;53.188;8.696;2023-04-02T03:36:30;2.58;;;1.35;;
16845;SDS011;8539;53.188;8.696;2023-04-02T03:41:57;4.60;;;1.45;;
16845;SDS011;8539;53.188;8.696;2023-04-02T03:45:02;12.68;;;1.75;;
16845;SDS011;8539;53.188;8.696;2023-04-02T03:47:24;6.55;;;1.90;;
16845;SDS011;8539;53.188;8.696;2023-04-02T03:50:00;7.35;;;2.00;;
16845;SDS011;8539;53.188;8.696;2023-04-02T03:52:27;9.00;;;1.50;;
16845;SDS011;8539;53.188;8.696;2023-04-02T03:54:55;6.30;;;1.40;;
16845;SDS011;8539;53.188;8.696;2023-04-02T03:57:25;6.70;;;1.33;;
16845;SDS011;8539;53.188;8.696;2023-04-02T04:02:42;4.78;;;2.10;;
16845;SDS011;8539;53.188;8.696;2023-04-02T04:05:34;8.98;;;1.55;;
16845;SDS011;8539;53.188;8.696;2023-04-02T04:08:07;4.85;;;1.40;;
16845;SDS011;8539;53.188;8.696;2023-04-02T04:10:52;2.92;;;1.25;;
16845;SDS011;8539;53.188;8.696;2023-04-02T04:13:26;6.55;;;1.70;;
16845;SDS011;8539;53.188;8.696;2023-04-02T04:16:00;10.18;;;1.70;;
16845;SDS011;8539;53.188;8.696;2023-04-02T04:21:10;8.55;;;1.75;;
16845;SDS011;8539;53.188;8.696;2023-04-02T04:23:41;7.57;;;1.73;;
16845;SDS011;8539;53.188;8.696;2023-04-02T04:26:35;4.07;;;1.23;;
16845;SDS011;8539;53.188;8.696;2023-04-02T04:29:45;6.20;;;1.75;;
16845;SDS011;8539;53.188;8.696;2023-04-02T04:34:53;11.20;;;1.80;;
16845;SDS011;8539;53.188;8.696;2023-04-02T04:37:27;5.57;;;1.33;;
16845;SDS011;8539;53.188;8.696;2023-04-02T04:40:08;2.92;;;1.38;;
16845;SDS011;8539;53.188;8.696;2023-04-02T04:48:01;8.32;;;1.45;;
16845;SDS011;8539;53.188;8.696;2023-04-02T04:53:05;6.60;;;2.22;;
16845;SDS011;8539;53.188;8.696;2023-04-02T04:58:47;5.70;;;1.67;;
16845;SDS011;8539;53.188;8.696;2023-04-02T05:01:09;2.40;;;0.98;;
16845;SDS011;8539;53.188;8.696;2023-04-02T05:04:41;6.38;;;1.48;;
16845;SDS011;8539;53.188;8.696;2023-04-02T05:06:48;4.25;;;1.75;;
16845;SDS011;8539;53.188;8.696;2023-04-02T05:09:44;4.35;;;1.42;;
16845;SDS011;8539;53.188;8.696;2023-04-02T05:12:36;7.90;;;2.67;;
16845;SDS011;8539;53.188;8.696;2023-04-02T05:20:22;4.55;;;1.85;;
16845;SDS011;8539;53.188;8.696;2023-04-02T05:28:42;5.57;;;1.88;;
16845;SDS011;8539;53.188;8.696;2023-04-02T05:31:14;5.53;;;1.77;;
16845;SDS011;8539;53.188;8.696;2023-04-02T05:33:45;3.78;;;1.33;;
16845;SDS011;8539;53.188;8.696;2023-04-02T05:36:20;3.95;;;1.25;;
16845;SDS011;8539;53.188;8.696;2023-04-02T05:38:50;8.82;;;1.55;;
16845;SDS011;8539;53.188;8.696;2023-04-02T05:46:58;6.15;;;2.83;;
16845;SDS011;8539;53.188;8.696;2023-04-02T05:51:56;3.92;;;1.30;;
16845;SDS011;8539;53.188;8.696;2023-04-02T05:54:33;3.17;;;1.58;;
16845;SDS011;8539;53.188;8.696;2023-04-02T05:57:20;5.25;;;1.63;;
16845;SDS011;8539;53.188;8.696;2023-04-02T05:59:51;7.80;;;1.42;;
16845;SDS011;8539;53.188;8.696;2023-04-02T06:02:29;5.40;;;1.67;;
16845;SDS011;8539;53.188;8.696;2023-04-02T06:07:41;2.13;;;1.10;;
16845;SDS011;8539;53.188;8.696;2023-04-02T06:10:21;3.65;;;1.58;;
16845;SDS011;8539;53.188;8.696;2023-04-02T06:12:55;8.27;;;2.47;;
16845;SDS011;8539;53.188;8.696;2023-04-02T06:15:29;4.53;;;1.35;;
16845;SDS011;8539;53.188;8.696;2023-04-02T06:20:44;2.72;;;1.20;;
16845;SDS011;8539;53.188;8.696;2023-04-02T06:25:43;3.67;;;1.42;;
16845;SDS011;8539;53.188;8.696;2023-04-02T06:28:17;7.93;;;1.40;;
16845;SDS011;8539;53.188;8.696;2023-04-02T06:30:51;5.80;;;2.17;;
16845;SDS011;8539;53.188;8.696;2023-04-02T06:33:21;6.83;;;2.60;;
16845;SDS011;8539;53.188;8.696;2023-04-02T06:35:47;6.50;;;2.00;;
16845;SDS011;8539;53.188;8.696;2023-04-02T06:38:18;5.00;;;2.33;;
16845;SDS011;8539;53.188;8.696;2023-04-02T06:40:49;7.63;;;1.70;;
16845;SDS011;8539;53.188;8.696;2023-04-02T06:43:36;7.07;;;1.75;;
16845;SDS011;8539;53.188;8.696;2023-04-02T06:46:28;3.88;;;1.38;;
16845;SDS011;8539;53.188;8.696;2023-04-02T06:51:37;5.57;;;1.60;;
16845;SDS011;8539;53.188;8.696;2023-04-02T06:54:05;2.72;;;1.10;;
16845;SDS011;8539;53.188;8.696;2023-04-02T06:56:45;6.57;;;2.25;;
16845;SDS011;8539;53.188;8.696;2023-04-02T06:59:16;3.55;;;2.40;;
16845;SDS011;8539;53.188;8.696;2023-04-02T07:04:19;4.75;;;1.80;;
16845;SDS011;8539;53.188;8.696;2023-04-02T07:06:46;5.03;;;1.77;;
16845;SDS011;8539;53.188;8.696;2023-04-02T07:09:13;1.75;;;1.13;;
16845;SDS011;8539;53.188;8.696;2023-04-02T07:11:40;5.40;;;1.90;;
16845;SDS011;8539;53.188;8.696;2023-04-02T07:14:07;8.02;;;1.50;;
16845;SDS011;8539;53.188;8.696;2023-04-02T07:16:37;9.13;;;1.92;;
16845;SDS011;8539;53.188;8.696;2023-04-02T07:19:05;7.30;;;1.10;;
16845;SDS011;8539;53.188;8.696;2023-04-02T07:21:39;7.78;;;1.45;;
16845;SDS011;8539;53.188;8.696;2023-04-02T07:24:06;4.32;;;2.58;;
16845;SDS011;8539;53.188;8.696;2023-04-02T07:26:32;3.88;;;1.50;;
16845;SDS011;8539;53.188;8.696;2023-04-02T07:28:58;3.58;;;1.42;;
16845;SDS011;8539;53.188;8.696;2023-04-02T07:31:25;3.72;;;1.52;;
16845;SDS011;8539;53.188;8.696;2023-04-02T07:33:56;3.00;;;1.35;;
16845;SDS011;8539;53.188;8.696;2023-04-02T07:36:24;9.95;;;1.25;;
16845;SDS011;8539;53.188;8.696;2023-04-02T07:38:52;5.25;;;1.20;;
16845;SDS011;8539;53.188;8.696;2023-04-02T07:41:18;3.08;;;1.00;;
16845;SDS011;8539;53.188;8.696;2023-04-02T07:43:45;5.10;;;1.70;;
16845;SDS011;8539;53.188;8.696;2023-04-02T07:46:12;5.95;;;1.33;;
16845;SDS011;8539;53.188;8.696;2023-04-02T07:48:41;1.75;;;1.20;;
16845;SDS011;8539;53.188;8.696;2023-04-02T07:51:18;3.60;;;1.25;;
16845;SDS011;8539;53.188;8.696;2023-04-02T07:53:49;1.77;;;1.02;;
16845;SDS011;8539;53.188;8.696;2023-04-02T07:56:20;2.30;;;1.25;;
16845;SDS011;8539;53.188;8.696;2023-04-02T07:58:48;7.15;;;1.63;;
16845;SDS011;8539;53.188;8.696;2023-04-02T08:01:16;5.97;;;1.20;;
16845;SDS011;8539;53.188;8.696;2023-04-02T08:03:44;4.00;;;1.02;;
16845;SDS011;8539;53.188;8.696;2023-04-02T08:06:10;2.85;;;1.15;;
16845;SDS011;8539;53.188;8.696;2023-04-02T08:08:36;3.05;;;0.80;;
16845;SDS011;8539;53.188;8.696;2023-04-02T08:11:03;4.10;;;1.17;;
16845;SDS011;8539;53.188;8.696;2023-04-02T08:13:30;4.35;;;1.60;;
16845;SDS011;8539;53.188;8.696;2023-04-02T08:15:57;6.05;;;1.30;;
16845;SDS011;8539;53.188;8.696;2023-04-02T08:18:24;4.25;;;1.48;;
16845;SDS011;8539;53.188;8.696;2023-04-02T08:20:51;3.00;;;1.90;;
16845;SDS011;8539;53.188;8.696;2023-04-02T08:23:17;4.70;;;1.40;;
16845;SDS011;8539;53.188;8.696;2023-04-02T08:25:44;1.33;;;0.77;;
16845;SDS011;8539;53.188;8.696;2023-04-02T08:28:10;2.58;;;1.00;;
16845;SDS011;8539;53.188;8.696;2023-04-02T08:30:37;7.53;;;1.33;;
16845;SDS011;8539;53.188;8.696;2023-04-02T08:33:03;3.88;;;1.40;;
16845;SDS011;8539;53.188;8.696;2023-04-02T08:35:29;4.97;;;1.00;;
16845;SDS011;8539;53.188;8.696;2023-04-02T08:37:57;4.72;;;1.10;;
16845;SDS011;8539;53.188;8.696;2023-04-02T08:40:25;2.40;;;1.05;;
16845;SDS011;8539;53.188;8.696;2023-04-02T08:46:08;5.88;;;1.17;;
16845;SDS011;8539;53.188;8.696;2023-04-02T08:48:37;3.88;;;1.25;;
16845;SDS011;8539;53.188;8.696;2023-04-02T08:51:05;4.20;;;1.08;;
16845;SDS011;8539;53.188;8.696;2023-04-02T08:53:40;6.50;;;1.05;;
16845;SDS011;8539;53.188;8.696;2023-04-02T08:56:11;3.92;;;1.10;;
16845;SDS011;8539;53.188;8.696;2023-04-02T08:58:48;3.92;;;1.45;;
16845;SDS011;8539;53.188;8.696;2023-04-02T09:01:31;3.03;;;1.10;;
16845;SDS011;8539;53.188;8.696;2023-04-02T09:04:13;2.97;;;1.10;;
16845;SDS011;8539;53.188;8.696;2023-04-02T09:06:43;2.75;;;1.15;;
16845;SDS011;8539;53.188;8.696;2023-04-02T09:09:10;2.30;;;0.90;;
16845;SDS011;8539;53.188;8.696;2023-04-02T09:14:17;4.60;;;1.27;;
16845;SDS011;8539;53.188;8.696;2023-04-02T09:16:57;9.68;;;1.92;;
16845;SDS011;8539;53.188;8.696;2023-04-02T09:19:32;4.45;;;1.92;;
16845;SDS011;8539;53.188;8.696;2023-04-02T09:22:22;1.98;;;1.00;;
16845;SDS011;8539;53.188;8.696;2023-04-02T09:24:53;3.92;;;1.27;;
16845;SDS011;8539;53.188;8.696;2023-04-02T09:27:22;2.65;;;1.08;;
16845;SDS011;8539;53.188;8.696;2023-04-02T09:43:29;1.48;;;0.90;;
16845;SDS011;8539;53.188;8.696;2023-04-02T09:46:01;1.17;;;0.80;;
16845;SDS011;8539;53.188;8.696;2023-04-02T09:48:34;1.55;;;0.93;;
16845;SDS011;8539;53.188;8.696;2023-04-02T09:51:05;2.88;;;1.00;;
16845;SDS011;8539;53.188;8.696;2023-04-02T09:53:36;4.00;;;0.98;;
16845;SDS011;8539;53.188;8.696;2023-04-02T09:56:20;3.60;;;1.02;;
16845;SDS011;8539;53.188;8.696;2023-04-02T09:59:34;3.67;;;1.42;;
16845;SDS011;8539;53.188;8.696;2023-04-02T10:01:59;4.50;;;1.02;;
16845;SDS011;8539;53.188;8.696;2023-04-02T10:07:00;3.53;;;0.70;;
16845;SDS011;8539;53.188;8.696;2023-04-02T10:09:28;1.20;;;0.85;;
16845;SDS011;8539;53.188;8.696;2023-04-02T10:11:57;2.67;;;1.35;;
16845;SDS011;8539;53.188;8.696;2023-04-02T10:14:29;2.95;;;1.02;;
16845;SDS011;8539;53.188;8.696;2023-04-02T10:17:03;14.50;;;2.55;;
16845;SDS011;8539;53.188;8.696;2023-04-02T10:19:41;2.30;;;0.93;;
16845;SDS011;8539;53.188;8.696;2023-04-02T10:22:12;3.50;;;0.80;;
16845;SDS011;8539;53.188;8.696;2023-04-02T10:24:41;3.75;;;0.90;;
16845;SDS011;8539;53.188;8.696;2023-04-02T10:27:13;3.35;;;0.88;;
16845;SDS011;8539;53.188;8.696;2023-04-02T10:30:03;7.43;;;1.30;;
16845;SDS011;8539;53.188;8.696;2023-04-02T10:41:02;3.38;;;1.13;;
16845;SDS011;8539;53.188;8.696;2023-04-02T10:43:39;2.97;;;0.88;;
16845;SDS011;8539;53.188;8.696;2023-04-02T10:51:57;3.17;;;1.00;;
16845;SDS011;8539;53.188;8.696;2023-04-02T11:02:55;4.13;;;1.10;;
16845;SDS011;8539;53.188;8.696;2023-04-02T11:05:46;1.60;;;0.80;;
16845;SDS011;8539;53.188;8.696;2023-04-02T11:08:19;2.70;;;1.00;;
16845;SDS011;8539;53.188;8.696;2023-04-02T11:16:14;3.80;;;1.05;;
16845;SDS011;8539;53.188;8.696;2023-04-02T11:18:41;2.90;;;0.90;;
16845;SDS011;8539;53.188;8.696;2023-04-02T11:23:56;5.00;;;0.85;;
16845;SDS011;8539;53.188;8.696;2023-04-02T11:31:32;4.55;;;0.70;;
16845;SDS011;8539;53.188;8.696;2023-04-02T11:33:58;2.75;;;1.30;;
16845;SDS011;8539;53.188;8.696;2023-04-02T11:42:23;2.28;;;1.10;;
16845;SDS011;8539;53.188;8.696;2023-04-02T11:44:54;2.22;;;0.95;;
16845;SDS011;8539;53.188;8.696;2023-04-02T11:47:24;1.85;;;0.88;;
16845;SDS011;8539;53.188;8.696;2023-04-02T11:55:17;2.92;;;0.75;;
16845;SDS011;8539;53.188;8.696;2023-04-02T11:57:50;1.77;;;0.90;;
16845;SDS011;8539;53.188;8.696;2023-04-02T12:03:12;5.40;;;0.70;;
16845;SDS011;8539;53.188;8.696;2023-04-02T12:11:34;2.55;;;0.60;;
16845;SDS011;8539;53.188;8.696;2023-04-02T12:14:27;5.32;;;0.75;;
16845;SDS011;8539;53.188;8.696;2023-04-02T12:19:23;4.22;;;0.75;;
16845;SDS011;8539;53.188;8.696;2023-04-02T12:21:51;3.05;;;0.77;;
16845;SDS011;8539;53.188;8.696;2023-04-02T12:24:18;2.28;;;1.10;;
16845;SDS011;8539;53.188;8.696;2023-04-02T12:26:47;2.65;;;0.90;;
16845;SDS011;8539;53.188;8.696;2023-04-02T12:31:54;4.07;;;0.88;;
16845;SDS011;8539;53.188;8.696;2023-04-02T12:34:22;2.35;;;0.70;;
16845;SDS011;8539;53.188;8.696;2023-04-02T12:37:00;4.55;;;1.00;;
16845;SDS011;8539;53.188;8.696;2023-04-02T12:39:28;3.42;;;0.90;;
16845;SDS011;8539;53.188;8.696;2023-04-02T12:41:58;2.20;;;1.15;;
16845;SDS011;8539;53.188;8.696;2023-04-02T12:44:28;2.55;;;0.88;;
16845;SDS011;8539;53.188;8.696;2023-04-02T12:46:55;1.90;;;1.02;;
16845;SDS011;8539;53.188;8.696;2023-04-02T12:49:36;3.13;;;0.80;;
16845;SDS011;8539;53.188;8.696;2023-04-02T12:52:05;6.38;;;1.10;;
16845;SDS011;8539;53.188;8.696;2023-04-02T12:54:45;2.63;;;1.00;;
16845;SDS011;8539;53.188;8.696;2023-04-02T12:59:53;2.38;;;0.85;;
16845;SDS011;8539;53.188;8.696;2023-04-02T13:02:29;2.20;;;0.80;;
16845;SDS011;8539;53.188;8.696;2023-04-02T13:04:59;3.55;;;0.80;;
16845;SDS011;8539;53.188;8.696;2023-04-02T13:07:27;3.40;;;0.70;;
16845;SDS011;8539;53.188;8.696;2023-04-02T13:10:00;2.15;;;1.10;;
16845;SDS011;8539;53.188;8.696;2023-04-02T13:12:36;3.87;;;1.30;;
16845;SDS011;8539;53.188;8.696;2023-04-02T13:15:19;2.22;;;0.77;;
16845;SDS011;8539;53.188;8.696;2023-04-02T13:18:01;1.83;;;1.02;;
16845;SDS011;8539;53.188;8.696;2023-04-02T13:20:34;3.58;;;0.98;;
16845;SDS011;8539;53.188;8.696;2023-04-02T13:29:01;1.65;;;0.77;;
16845;SDS011;8539;53.188;8.696;2023-04-02T13:31:33;1.35;;;0.75;;
16845;SDS011;8539;53.188;8.696;2023-04-02T13:34:00;2.70;;;0.98;;
16845;SDS011;8539;53.188;8.696;2023-04-02T13:36:26;3.58;;;1.00;;
16845;SDS011;8539;53.188;8.696;2023-04-02T13:38:54;2.40;;;1.20;;
16845;SDS011;8539;53.188;8.696;2023-04-02T13:41:24;2.55;;;1.10;;
16845;SDS011;8539;53.188;8.696;2023-04-02T13:43:53;1.38;;;0.70;;
16845;SDS011;8539;53.188;8.696;2023-04-02T13:46:24;1.50;;;1.00;;
16845;SDS011;8539;53.188;8.696;2023-04-02T13:48:52;0.75;;;0.63;;
16845;SDS011;8539;53.188;8.696;2023-04-02T13:51:21;2.63;;;0.80;;
16845;SDS011;8539;53.188;8.696;2023-04-02T13:53:51;4.25;;;1.17;;
16845;SDS011;8539;53.188;8.696;2023-04-02T13:56:20;1.63;;;0.80;;
16845;SDS011;8539;53.188;8.696;2023-04-02T14:03:58;1.58;;;0.73;;
16845;SDS011;8539;53.188;8.696;2023-04-02T15:01:58;1.13;;;0.73;;
16845;SDS011;8539;53.188;8.696;2023-04-02T15:05:01;0.60;;;0.50;;
16845;SDS011;8539;53.188;8.696;2023-04-02T15:07:35;1.15;;;0.52;;
16845;SDS011;8539;53.188;8.696;2023-04-02T15:10:23;1.65;;;0.98;;
16845;SDS011;8539;53.188;8.696;2023-04-02T15:13:01;1.60;;;0.77;;
16845;SDS011;8539;53.188;8.696;2023-04-02T15:18:12;2.53;;;0.80;;
16845;SDS011;8539;53.188;8.696;2023-04-02T15:26:29;1.25;;;0.65;;
16845;SDS011;8539;53.188;8.696;2023-04-02T15:29:21;3.25;;;0.50;;
16845;SDS011;8539;53.188;8.696;2023-04-02T15:31:53;1.80;;;0.70;;
16845;SDS011;8539;53.188;8.696;2023-04-02T15:34:43;3.15;;;0.93;;
16845;SDS011;8539;53.188;8.696;2023-04-02T15:37:44;1.17;;;0.63;;
16845;SDS011;8539;53.188;8.696;2023-04-02T15:43:18;1.13;;;0.70;;
16845;SDS011;8539;53.188;8.696;2023-04-02T15:51:15;2.38;;;0.98;;
16845;SDS011;8539;53.188;8.696;2023-04-02T16:12:16;2.15;;;1.13;;
16845;SDS011;8539;53.188;8.696;2023-04-02T16:14:44;4.35;;;0.63;;
16845;SDS011;8539;53.188;8.696;2023-04-02T16:17:18;1.23;;;0.63;;
16845;SDS011;8539;53.188;8.696;2023-04-02T16:19:51;0.50;;;0.50;;
16845;SDS011;8539;53.188;8.696;2023-04-02T16:22:23;2.45;;;0.70;;
16845;SDS011;8539;53.188;8.696;2023-04-02T16:24:59;1.63;;;0.70;;
16845;SDS011;8539;53.188;8.696;2023-04-02T16:27:34;1.30;;;1.20;;
16845;SDS011;8539;53.188;8.696;2023-04-02T16:35:52;0.95;;;0.40;;
16845;SDS011;8539;53.188;8.696;2023-04-02T16:39:02;0.88;;;0.60;;
16845;SDS011;8539;53.188;8.696;2023-04-02T16:42:02;0.50;;;0.45;;
16845;SDS011;8539;53.188;8.696;2023-04-02T16:44:50;0.73;;;0.55;;
16845;SDS011;8539;53.188;8.696;2023-04-02T16:59:06;0.43;;;0.43;;
16845;SDS011;8539;53.188;8.696;2023-04-02T17:07:06;1.35;;;0.57;;
16845;SDS011;8539;53.188;8.696;2023-04-02T17:09:52;3.08;;;0.50;;
16845;SDS011;8539;53.188;8.696;2023-04-02T17:12:45;1.48;;;0.70;;
16845;SDS011;8539;53.188;8.696;2023-04-02T17:15:19;3.30;;;1.27;;
16845;SDS011;8539;53.188;8.696;2023-04-02T17:17:52;1.58;;;0.50;;
16845;SDS011;8539;53.188;8.696;2023-04-02T17:20:23;0.80;;;0.57;;
16845;SDS011;8539;53.188;8.696;2023-04-02T17:22:50;0.70;;;0.55;;
16845;SDS011;8539;53.188;8.696;2023-04-02T17:25:22;1.10;;;0.73;;
16845;SDS011;8539;53.188;8.696;2023-04-02T17:28:08;1.17;;;0.70;;
16845;SDS011;8539;53.188;8.696;2023-04-02T17:30:38;1.23;;;0.60;;
16845;SDS011;8539;53.188;8.696;2023-04-02T17:33:17;3.20;;;0.90;;
16845;SDS011;8539;53.188;8.696;2023-04-02T17:47:01;1.25;;;0.75;;
16845;SDS011;8539;53.188;8.696;2023-04-02T17:49:56;5.53;;;1.02;;
16845;SDS011;8539;53.188;8.696;2023-04-02T18:03:44;1.00;;;0.90;;
16845;SDS011;8539;53.188;8.696;2023-04-02T18:17:31;4.68;;;1.00;;
16845;SDS011;8539;53.188;8.696;2023-04-02T18:30:46;3.20;;;1.08;;
16845;SDS011;8539;53.188;8.696;2023-04-02T18:39:31;2.38;;;1.08;;
16845;SDS011;8539;53.188;8.696;2023-04-02T18:50:48;1.88;;;1.25;;
16845;SDS011;8539;53.188;8.696;2023-04-02T18:52:46;1.20;;;0.90;;
16845;SDS011;8539;53.188;8.696;2023-04-02T18:55:18;0.73;;;0.73;;
16845;SDS011;8539;53.188;8.696;2023-04-02T18:57:57;2.53;;;0.82;;
16845;SDS011;8539;53.188;8.696;2023-04-02T19:00:33;3.40;;;1.13;;
16845;SDS011;8539;53.188;8.696;2023-04-02T19:03:24;2.13;;;1.10;;
16845;SDS011;8539;53.188;8.696;2023-04-02T19:06:02;3.08;;;1.05;;
16845;SDS011;8539;53.188;8.696;2023-04-02T19:11:08;1.88;;;1.65;;
16845;SDS011;8539;53.188;8.696;2023-04-02T19:13:38;1.17;;;1.08;;
16845;SDS011;8539;53.188;8.696;2023-04-02T19:21:26;2.97;;;1.02;;
16845;SDS011;8539;53.188;8.696;2023-04-02T19:24:05;4.20;;;1.33;;
16845;SDS011;8539;53.188;8.696;2023-04-02T19:35:26;2.38;;;1.08;;
16845;SDS011;8539;53.188;8.696;2023-04-02T19:43:33;1.42;;;0.63;;
16845;SDS011;8539;53.188;8.696;2023-04-02T19:45:59;1.55;;;0.98;;
16845;SDS011;8539;53.188;8.696;2023-04-02T19:48:27;4.13;;;1.10;;
16845;SDS011;8539;53.188;8.696;2023-04-02T19:51:01;3.28;;;1.00;;
16845;SDS011;8539;53.188;8.696;2023-04-02T19:54:42;2.58;;;0.93;;
16845;SDS011;8539;53.188;8.696;2023-04-02T19:57:11;3.80;;;0.80;;
16845;SDS011;8539;53.188;8.696;2023-04-02T19:59:40;3.58;;;1.00;;
16845;SDS011;8539;53.188;8.696;2023-04-02T20:02:08;6.57;;;0.90;;
16845;SDS011;8539;53.188;8.696;2023-04-02T20:04:35;2.95;;;1.27;;
16845;SDS011;8539;53.188;8.696;2023-04-02T20:07:02;1.33;;;1.10;;
16845;SDS011;8539;53.188;8.696;2023-04-02T20:09:28;3.05;;;1.30;;
16845;SDS011;8539;53.188;8.696;2023-04-02T20:11:54;4.45;;;0.80;;
16845;SDS011;8539;53.188;8.696;2023-04-02T20:14:20;1.40;;;1.20;;
16845;SDS011;8539;53.188;8.696;2023-04-02T20:16:46;5.03;;;1.02;;
16845;SDS011;8539;53.188;8.696;2023-04-02T20:19:12;1.05;;;0.80;;
16845;SDS011;8539;53.188;8.696;2023-04-02T20:21:39;1.50;;;0.90;;
16845;SDS011;8539;53.188;8.696;2023-04-02T20:24:05;3.03;;;0.93;;
16845;SDS011;8539;53.188;8.696;2023-04-02T20:26:33;3.95;;;0.98;;
16845;SDS011;8539;53.188;8.696;2023-04-02T20:29:00;7.50;;;1.10;;
16845;SDS011;8539;53.188;8.696;2023-04-02T20:31:29;3.03;;;1.40;;
16845;SDS011;8539;53.188;8.696;2023-04-02T20:33:56;4.25;;;1.02;;
16845;SDS011;8539;53.188;8.696;2023-04-02T20:36:23;2.00;;;1.05;;
16845;SDS011;8539;53.188;8.696;2023-04-02T20:38:49;3.90;;;1.45;;
16845;SDS011;8539;53.188;8.696;2023-04-02T20:41:16;2.38;;;1.45;;
16845;SDS011;8539;53.188;8.696;2023-04-02T20:43:43;3.47;;;0.90;;
16845;SDS011;8539;53.188;8.696;2023-04-02T20:46:10;1.17;;;0.73;;
16845;SDS011;8539;53.188;8.696;2023-04-02T20:48:37;3.72;;;1.13;;
16845;SDS011;8539;53.188;8.696;2023-04-02T20:51:04;3.22;;;1.00;;
16845;SDS011;8539;53.188;8.696;2023-04-02T20:53:33;2.47;;;0.95;;
16845;SDS011;8539;53.188;8.696;2023-04-02T20:56:10;4.32;;;1.38;;
16845;SDS011;8539;53.188;8.696;2023-04-02T20:58:41;3.33;;;1.20;;
16845;SDS011;8539;53.188;8.696;2023-04-02T21:01:21;1.15;;;0.98;;
16845;SDS011;8539;53.188;8.696;2023-04-02T21:03:52;3.03;;;1.45;;
16845;SDS011;8539;53.188;8.696;2023-04-02T21:06:20;8.40;;;1.30;;
16845;SDS011;8539;53.188;8.696;2023-04-02T21:08:48;5.15;;;1.25;;
16845;SDS011;8539;53.188;8.696;2023-04-02T21:11:15;2.55;;;1.17;;
16845;SDS011;8539;53.188;8.696;2023-04-02T21:13:42;4.18;;;1.58;;
16845;SDS011;8539;53.188;8.696;2023-04-02T21:16:19;0.95;;;0.75;;
16845;SDS011;8539;53.188;8.696;2023-04-02T21:18:50;3.60;;;1.33;;
16845;SDS011;8539;53.188;8.696;2023-04-02T21:21:17;3.33;;;1.15;;
16845;SDS011;8539;53.188;8.696;2023-04-02T21:23:44;2.35;;;1.00;;
16845;SDS011;8539;53.188;8.696;2023-04-02T21:26:14;1.95;;;1.30;;
16845;SDS011;8539;53.188;8.696;2023-04-02T21:28:42;3.45;;;1.40;;
16845;SDS011;8539;53.188;8.696;2023-04-02T21:31:10;5.15;;;1.35;;
16845;SDS011;8539;53.188;8.696;2023-04-02T21:33:39;3.15;;;0.95;;
16845;SDS011;8539;53.188;8.696;2023-04-02T21:36:12;1.67;;;1.00;;
16845;SDS011;8539;53.188;8.696;2023-04-02T21:38:43;3.35;;;1.35;;
16845;SDS011;8539;53.188;8.696;2023-04-02T21:41:12;4.22;;;1.20;;
16845;SDS011;8539;53.188;8.696;2023-04-02T21:43:41;1.38;;;1.08;;
16845;SDS011;8539;53.188;8.696;2023-04-02T21:46:08;3.42;;;1.50;;
16845;SDS011;8539;53.188;8.696;2023-04-02T21:48:34;7.15;;;1.40;;
16845;SDS011;8539;53.188;8.696;2023-04-02T21:51:05;4.63;;;1.20;;
16845;SDS011;8539;53.188;8.696;2023-04-02T21:53:38;1.35;;;1.02;;
16845;SDS011;8539;53.188;8.696;2023-04-02T21:56:07;7.88;;;1.27;;
16845;SDS011;8539;53.188;8.696;2023-04-02T21:58:35;5.07;;;1.23;;
16845;SDS011;8539;53.188;8.696;2023-04-02T22:01:02;4.43;;;2.53;;
16845;SDS011;8539;53.188;8.696;2023-04-02T22:03:29;4.38;;;1.48;;
16845;SDS011;8539;53.188;8.696;2023-04-02T22:08:30;3.97;;;1.33;;